Time;durP1;ratioP1;P1;durP2;ratioP2;P2;SDS_P1;SDS_P2;PMS_P1;PMS_P2;Temp;Humidity;BMP_temperature;BMP_pressure;BME280_temperature;BME280_humidity;BME280_pressure;Samples;Min_cycle;Max_cycle;Signal;HPM_P1;HPM_P2
2022/09/26 00:03:33;;;;;;;22.95;9.05;;;;;;;9.84;100.00;99314.78;12220885;19;20010;-77
2022/09/26 00:07:34;;;;;;;20.63;9.75;;;;;;;9.82;100.00;99315.06;12224400;19;20030;-76
2022/09/26 00:11:39;;;;;;;21.10;9.43;;;;;;;9.81;100.00;99307.88;12207468;19;20769;-77
2022/09/26 00:15:40;;;;;;;19.10;8.68;;;;;;;9.77;100.00;99315.81;12227586;19;20011;-77
2022/09/26 00:19:42;;;;;;;18.00;9.38;;;;;;;9.76;100.00;99321.59;12204728;19;20022;-76
2022/09/26 00:23:44;;;;;;;29.95;9.05;;;;;;;9.71;100.00;99314.09;12222047;19;20014;-77
2022/09/26 00:27:46;;;;;;;23.38;8.55;;;;;;;9.65;100.00;99319.78;12222962;19;20325;-78
2022/09/26 00:31:48;;;;;;;19.02;8.23;;;;;;;9.62;100.00;99315.63;12198440;19;20006;-77
2022/09/26 00:35:54;;;;;;;19.40;9.43;;;;;;;9.59;100.00;99305.97;12225983;19;20038;-77
2022/09/26 00:39:55;;;;;;;18.55;8.90;;;;;;;9.56;100.00;99311.16;12222863;19;20037;-77
2022/09/26 00:43:58;;;;;;;;;;;;;;;9.55;100.00;99309.50;12201151;19;20039;-78
2022/09/26 00:48:04;;;;;;;20.83;8.77;;;;;;;9.55;100.00;99304.81;12224869;19;19930;-77
2022/09/26 00:52:11;;;;;;;25.50;9.48;;;;;;;9.54;100.00;99296.81;12216144;19;20010;-78
2022/09/26 00:56:18;;;;;;;19.63;9.93;;;;;;;9.53;100.00;99289.66;12194046;19;20006;-77
2022/09/26 01:00:22;;;;;;;23.40;10.23;;;;;;;9.52;100.00;99291.59;12216630;19;20002;-78
2022/09/26 01:04:27;;;;;;;23.45;10.43;;;;;;;9.51;100.00;99284.41;12217996;19;20034;-78
2022/09/26 01:08:34;;;;;;;20.73;9.95;;;;;;;9.54;100.00;99285.81;12197865;19;20015;-78
2022/09/26 01:12:37;;;;;;;21.02;9.90;;;;;;;9.53;100.00;99276.72;12217379;19;20052;-78
2022/09/26 01:16:41;;;;;;;;;;;;;;;9.51;100.00;99273.41;12210279;19;20002;-77
2022/09/26 01:21:24;;;;;;;19.50;9.10;;;;;;;9.47;100.00;99269.50;12216563;19;19938;-79
2022/09/26 01:25:29;;;;;;;24.45;9.75;;;;;;;9.42;100.00;99266.69;12221299;19;20102;-77
2022/09/26 01:29:41;;;;;;;22.27;9.82;;;;;;;9.40;100.00;99263.38;12203856;19;20047;-78
2022/09/26 01:34:11;;;;;;;27.63;10.68;;;;;;;9.37;100.00;99252.91;12216571;19;20082;-78
2022/09/26 01:38:36;;;;;;;23.50;10.02;;;;;;;9.36;100.00;99252.03;12193862;19;20015;-77
2022/09/26 01:42:59;;;;;;;19.00;9.82;;;;;;;9.31;100.00;99251.13;12218259;19;20492;-78
2022/09/26 01:47:15;;;;;;;16.60;9.15;;;;;;;9.30;100.00;99249.47;12194809;19;20019;-78
2022/09/26 01:51:27;;;;;;;19.65;9.73;;;;;;;9.29;100.00;99250.56;12214875;19;20435;-77
2022/09/26 01:55:36;;;;;;;26.48;12.07;;;;;;;9.29;100.00;99253.31;12218691;19;20006;-77
2022/09/26 01:59:42;;;;;;;27.02;11.10;;;;;;;9.29;100.00;99247.84;12196010;19;20003;-77
2022/09/26 02:03:53;;;;;;;30.42;10.82;;;;;;;9.28;100.00;99247.00;12217087;19;20610;-77
2022/09/26 02:08:06;;;;;;;30.05;11.32;;;;;;;9.26;100.00;99237.34;12194194;19;20024;-77
2022/09/26 02:12:12;;;;;;;31.30;12.13;;;;;;;9.23;100.00;99233.19;12220781;19;20010;-77
2022/09/26 02:16:42;;;;;;;26.58;11.75;;;;;;;9.21;100.00;99229.03;12214455;19;20490;-77
2022/09/26 02:20:54;;;;;;;26.83;11.27;;;;;;;9.17;100.00;99228.72;12187120;19;20037;-77
2022/09/26 02:24:56;;;;;;;23.77;11.55;;;;;;;9.13;100.00;99222.91;12203349;19;20010;-77
2022/09/26 02:29:00;;;;;;;27.63;11.98;;;;;;;9.11;100.00;99215.97;12185037;19;20019;-76
2022/09/26 02:33:01;;;;;;;;;;;;;;;9.07;100.00;99209.31;12204124;19;20090;-76
2022/09/26 02:37:09;;;;;;;24.10;11.07;;;;;;;9.05;100.00;99201.34;12204679;19;20359;-76
2022/09/26 02:41:32;;;;;;;22.85;11.50;;;;;;;9.03;100.00;99192.50;12184375;19;20010;-76
2022/09/26 02:45:46;;;;;;;28.25;11.30;;;;;;;9.00;100.00;99193.03;12211702;19;20006;-77
2022/09/26 02:50:30;;;;;;;29.70;11.65;;;;;;;8.99;100.00;99177.63;12186202;19;20498;-76
2022/09/26 02:54:45;;;;;;;23.80;11.18;;;;;;;8.97;100.00;99176.22;12204294;19;20066;-76
2022/09/26 02:58:52;;;;;;;26.83;12.27;;;;;;;8.95;100.00;99173.72;12187531;19;20253;-78
2022/09/26 03:03:06;;;;;;;21.75;11.45;;;;;;;8.94;100.00;99171.22;12210171;19;20017;-78
2022/09/26 03:07:46;;;;;;;25.35;11.85;;;;;;;8.92;100.00;99155.00;12207965;19;20162;-77
2022/09/26 03:11:49;;;;;;;29.30;11.30;;;;;;;8.87;100.00;99158.50;12187427;19;20094;-76
2022/09/26 03:15:54;;;;;;;31.15;12.18;;;;;;;8.85;100.00;99157.09;12207152;19;20039;-78
2022/09/26 03:20:20;;;;;;;28.42;11.23;;;;;;;8.85;100.00;99146.13;12184591;19;20020;-78
2022/09/26 03:24:24;;;;;;;27.33;11.57;;;;;;;8.81;100.00;99140.31;12202775;19;20023;-77
2022/09/26 03:28:29;;;;;;;25.40;11.20;;;;;;;8.80;100.00;99138.63;12205035;19;20006;-77
2022/09/26 03:32:39;;;;;;;31.77;13.60;;;;;;;8.79;100.00;99136.97;12182424;19;20030;-77
2022/09/26 03:36:40;;;;;;;27.08;12.32;;;;;;;8.74;100.00;99134.16;12205645;19;20495;-76
2022/09/26 03:40:45;;;;;;;27.73;12.95;;;;;;;8.73;100.00;99132.50;12185549;19;20086;-76
2022/09/26 03:45:13;;;;;;;28.40;12.50;;;;;;;8.73;100.00;99120.69;12205155;19;20566;-77
2022/09/26 03:49:33;;;;;;;37.67;14.15;;;;;;;8.71;100.00;99111.84;12204131;19;20082;-77
2022/09/26 03:53:38;;;;;;;28.48;13.10;;;;;;;8.70;100.00;99107.47;12182481;19;20011;-77
2022/09/26 03:57:43;;;;;;;32.97;13.95;;;;;;;8.69;100.00;99109.38;12202887;19;20393;-77
2022/09/26 04:01:56;;;;;;;27.52;13.45;;;;;;;8.70;100.00;99101.97;12184098;19;20723;-77
2022/09/26 04:06:01;;;;;;;28.40;14.25;;;;;;;8.70;100.00;99093.72;12204503;19;20471;-77
2022/09/26 04:10:03;;;;;;;31.88;14.57;;;;;;;8.70;100.00;99082.75;12206109;19;20006;-76
2022/09/26 04:14:08;;;;;;;29.65;13.75;;;;;;;8.71;100.00;99076.97;12182890;19;20078;-75
2022/09/26 04:18:10;;;;;;;;;;;;;;;8.71;100.00;99076.97;12205995;19;20771;-77
2022/09/26 04:22:11;;;;;;;30.08;13.38;;;;;;;8.70;100.00;99063.50;12207501;19;20511;-77
2022/09/26 04:26:16;;;;;;;35.92;13.98;;;;;;;8.64;100.00;99060.69;12181670;19;20027;-77
2022/09/26 04:30:23;;;;;;;28.25;13.27;;;;;;;8.64;100.00;99051.63;12202266;19;20018;-76
2022/09/26 04:34:29;;;;;;;33.35;13.13;;;;;;;8.64;100.00;99052.47;12203580;19;20350;-78
2022/09/26 04:38:32;;;;;;;32.28;14.73;;;;;;;8.66;100.00;99047.56;12180220;19;20090;-75
2022/09/26 04:42:35;;;;;;;32.95;15.30;;;;;;;8.82;100.00;99050.47;12206876;19;20027;-78
2022/09/26 04:46:38;;;;;;;34.78;14.48;;;;;;;8.89;100.00;99031.84;12212241;19;20010;-79
2022/09/26 04:50:40;;;;;;;30.60;14.07;;;;;;;8.89;100.00;99024.47;12192109;19;20042;-77
2022/09/26 04:54:43;;;;;;;31.08;13.70;;;;;;;8.86;100.00;99027.75;12209706;19;20479;-78
2022/09/26 04:58:45;;;;;;;33.72;13.52;;;;;;;8.88;100.00;99027.47;12189339;19;20011;-77
2022/09/26 05:02:51;;;;;;;32.03;13.40;;;;;;;8.93;100.00;99026.69;12209316;19;20018;-78
2022/09/26 05:06:58;;;;;;;35.00;14.25;;;;;;;8.97;100.00;99025.91;12212302;19;20006;-78
2022/09/26 05:11:07;;;;;;;31.27;14.00;;;;;;;9.05;100.00;99025.47;12193913;19;20006;-78
2022/09/26 05:15:09;;;;;;;33.55;14.20;;;;;;;9.15;100.00;99027.47;12212616;19;20500;-79
2022/09/26 05:19:11;;;;;;;35.17;13.98;;;;;;;9.19;100.00;99008.53;12209238;19;20082;-78
2022/09/26 05:27:47;;;;;;;35.67;13.73;;;;;;;9.25;100.00;99002.00;12223700;19;20493;-79
2022/09/26 05:31:50;;;;;;;33.17;13.82;;;;;;;9.32;100.00;98997.13;12195220;19;20014;-81
2022/09/26 05:35:53;;;;;;;30.92;14.18;;;;;;;9.45;100.00;98990.34;12207621;19;20032;-78
2022/09/26 05:44:22;;;;;;;31.27;13.70;;;;;;;9.59;100.00;98986.88;12206013;19;20043;-77
2022/09/26 05:48:28;;;;;;;31.35;14.43;;;;;;;9.64;100.00;98985.25;12225363;19;20032;-78
2022/09/26 05:52:30;;;;;;;28.15;12.82;;;;;;;9.69;100.00;98974.31;12229357;19;20023;-78
2022/09/26 05:56:36;;;;;;;29.00;12.63;;;;;;;9.75;100.00;98984.25;12212750;19;20072;-78
2022/09/26 06:01:12;;;;;;;25.25;12.18;;;;;;;9.82;100.00;98982.94;12226618;19;20013;-79
2022/09/26 06:05:14;;;;;;;28.02;11.90;;;;;;;9.90;100.00;98967.81;12199137;19;20368;-78
2022/09/26 06:09:19;;;;;;;25.17;11.68;;;;;;;10.04;100.00;98971.78;12216064;19;20544;-77
2022/09/26 06:13:47;;;;;;;20.02;10.90;;;;;;;10.22;100.00;98972.41;12195166;19;20479;-78
2022/09/26 06:17:56;;;;;;;25.02;12.13;;;;;;;10.36;100.00;98967.28;12215616;19;20006;-77
2022/09/26 06:21:58;;;;;;;18.17;9.70;;;;;;;10.54;100.00;98964.03;12215181;19;20816;-78
2022/09/26 06:26:05;;;;;;;19.95;10.10;;;;;;;10.71;100.00;98961.06;12192623;19;20467;-77
2022/09/26 06:30:09;;;;;;;23.23;9.73;;;;;;;10.89;100.00;98956.97;12212496;19;20090;-77
2022/09/26 06:34:14;;;;;;;15.85;7.75;;;;;;;10.92;100.00;98960.00;12212533;19;20003;-78
2022/09/26 06:38:44;;;;;;;;;;;;;;;10.86;100.00;98958.34;12189966;19;20779;-78
2022/09/26 06:42:50;;;;;;;10.60;6.80;;;;;;;10.82;100.00;98959.16;12211389;19;19915;-78
2022/09/26 06:47:01;;;;;;;13.23;6.43;;;;;;;10.72;100.00;98959.97;12188936;19;20012;-78
2022/09/26 06:51:12;;;;;;;12.73;6.55;;;;;;;10.66;100.00;98948.09;12214034;19;20007;-78
2022/09/26 06:55:14;;;;;;;10.80;5.90;;;;;;;10.57;100.00;98944.22;12210977;19;20006;-77
2022/09/26 06:59:17;;;;;;;;;;;;;;;10.46;100.00;98940.59;12191906;19;20023;-78
2022/09/26 07:03:27;;;;;;;8.90;4.95;;;;;;;10.51;100.00;98939.78;12210069;19;19939;-78
2022/09/26 07:07:44;;;;;;;10.90;5.18;;;;;;;10.60;100.00;98942.84;12209433;19;20018;-79
2022/09/26 07:11:55;;;;;;;9.30;4.32;;;;;;;10.69;100.00;98943.97;12191250;19;20023;-78
2022/09/26 07:16:15;;;;;;;8.20;4.95;;;;;;;10.82;100.00;98943.44;12212454;19;20070;-77
2022/09/26 07:20:45;;;;;;;5.28;3.55;;;;;;;10.93;100.00;98934.09;12191149;19;20010;-78
2022/09/26 07:25:06;;;;;;;8.10;3.55;;;;;;;11.05;100.00;98933.00;12215683;19;20027;-78
2022/09/26 07:29:08;;;;;;;7.30;3.60;;;;;;;11.18;100.00;98930.56;12193024;19;20366;-78
2022/09/26 07:33:11;;;;;;;8.18;4.07;;;;;;;11.33;100.00;98928.88;12209735;19;20010;-79
2022/09/26 07:37:19;;;;;;;8.77;5.03;;;;;;;11.52;100.00;98926.41;12211721;19;20010;-78
2022/09/26 07:41:22;;;;;;;11.93;4.18;;;;;;;11.69;100.00;98923.31;12187655;19;20033;-78
2022/09/26 07:50:11;;;;;;;15.55;4.07;;;;;;;12.15;100.00;98918.53;12182984;19;20029;-78
2022/09/26 07:54:22;;;;;;;10.27;4.50;;;;;;;12.42;100.00;98920.91;12213354;19;20015;-77
2022/09/26 07:58:45;;;;;;;10.05;4.38;;;;;;;12.57;100.00;98911.72;12189689;19;20403;-77
2022/09/26 08:03:12;;;;;;;7.07;4.18;;;;;;;12.72;100.00;98919.09;12211212;19;20010;-77
2022/09/26 08:07:16;;;;;;;7.57;4.25;;;;;;;12.87;100.00;98913.44;12211328;19;20028;-77
2022/09/26 08:11:27;;;;;;;12.05;4.00;;;;;;;13.13;100.00;98907.75;12189424;19;20014;-78
2022/09/26 08:15:46;;;;;;;9.25;4.60;;;;;;;13.34;100.00;98903.72;12214916;19;20090;-79
2022/09/26 08:19:57;;;;;;;8.23;4.00;;;;;;;13.65;100.00;98901.50;12201280;19;20011;-78
2022/09/26 08:24:00;;;;;;;6.68;3.72;;;;;;;13.82;100.00;98900.22;12233058;19;20071;-78
2022/09/26 08:28:06;;;;;;;7.35;3.88;;;;;;;14.05;100.00;98901.34;12234587;19;20007;-81
2022/09/26 08:32:08;;;;;;;7.20;4.28;;;;;;;14.28;100.00;98894.16;12213312;19;20010;-81
2022/09/26 08:36:12;;;;;;;6.07;3.85;;;;;;;14.49;100.00;98897.47;12230513;19;20785;-79
2022/09/26 08:40:43;;;;;;;9.52;4.78;;;;;;;14.71;100.00;98894.13;12236409;19;20034;-79
2022/09/26 08:50:31;;;;;;;7.97;5.07;;;;;;;14.76;100.00;98894.91;12230183;19;20014;-80
2022/09/26 08:54:36;;;;;;;8.25;4.75;;;;;;;14.73;98.64;98891.91;12266033;19;20011;-81
2022/09/26 08:58:50;;;;;;;9.93;5.25;;;;;;;15.01;99.36;98890.91;12271351;19;20018;-81
2022/09/26 09:03:02;;;;;;;8.20;5.15;;;;;;;15.03;96.92;98885.88;12247073;19;20014;-79
2022/09/26 09:07:19;;;;;;;10.20;6.13;;;;;;;14.97;94.52;98880.72;12229918;19;20009;-79
2022/09/26 09:11:31;;;;;;;9.48;5.30;;;;;;;14.90;96.75;98872.78;12210930;19;20460;-81
2022/09/26 09:16:00;;;;;;;9.35;5.18;;;;;;;14.95;95.33;98874.63;12231952;19;20206;-78
2022/09/26 09:20:34;;;;;;;12.75;5.00;;;;;;;15.09;94.34;98878.31;12206740;19;20025;-80
2022/09/26 09:25:22;;;;;;;5.70;3.90;;;;;;;15.67;93.77;98868.66;12233315;19;20010;-79
2022/09/26 09:29:32;;;;;;;10.73;4.53;;;;;;;15.65;90.26;98865.41;12203826;19;20074;-78
2022/09/26 09:33:58;;;;;;;6.22;4.28;;;;;;;15.81;91.74;98852.88;12234829;19;20098;-78
2022/09/26 09:38:16;;;;;;;8.60;4.28;;;;;;;16.15;90.86;98855.25;12210585;19;20019;-79
2022/09/26 09:42:40;;;;;;;8.27;4.63;;;;;;;16.01;88.37;98851.66;12231755;19;20023;-79
2022/09/26 09:46:42;;;;;;;8.07;3.88;;;;;;;16.04;90.55;98845.47;12214399;19;20014;-79
2022/09/26 09:51:06;;;;;;;6.72;4.00;;;;;;;16.01;90.27;98839.72;12228811;19;20017;-79
2022/09/26 09:55:11;;;;;;;10.15;4.03;;;;;;;15.82;91.55;98829.50;12237981;19;20009;-79
2022/09/26 09:59:45;;;;;;;11.07;4.10;;;;;;;15.48;90.71;98822.38;12211233;19;20307;-79
2022/09/26 10:04:07;;;;;;;;;;;;;;;15.40;92.25;98825.03;12231003;19;20527;-78
2022/09/26 10:08:16;;;;;;;6.50;3.00;;;;;;;15.37;88.33;98809.00;12209334;19;19915;-79
2022/09/26 10:12:38;;;;;;;7.40;2.45;;;;;;;15.69;85.96;98805.34;12235823;19;20017;-80
2022/09/26 10:17:09;;;;;;;4.30;2.40;;;;;;;15.86;84.85;98804.75;12204438;19;20087;-80
2022/09/26 10:21:31;;;;;;;6.82;2.05;;;;;;;15.89;84.52;98802.16;12229080;19;20120;-79
2022/09/26 10:25:33;;;;;;;5.93;1.90;;;;;;;15.84;80.44;98796.72;12228513;19;20007;-79
2022/09/26 10:29:37;;;;;;;5.30;1.80;;;;;;;15.76;80.03;98788.28;12203379;19;20082;-78
2022/09/26 10:33:43;;;;;;;6.18;1.50;;;;;;;16.05;79.92;98790.72;12230444;19;20517;-79
2022/09/26 10:37:57;;;;;;;2.35;1.40;;;;;;;16.33;73.70;98797.88;12204810;19;20382;-78
2022/09/26 10:42:00;;;;;;;2.93;1.67;;;;;;;16.95;72.95;98783.34;12226208;19;20006;-80
2022/09/26 10:46:15;;;;;;;2.63;1.45;;;;;;;17.40;70.30;98794.44;12229894;19;20007;-79
2022/09/26 10:50:26;;;;;;;6.63;1.63;;;;;;;17.34;66.50;98783.75;12206226;19;20474;-78
2022/09/26 10:55:05;;;;;;;3.75;1.35;;;;;;;17.13;67.28;98775.09;12231576;19;20022;-80
2022/09/26 10:59:10;;;;;;;5.60;1.30;;;;;;;17.29;68.73;98768.00;12210115;19;20014;-79
2022/09/26 11:03:16;;;;;;;4.95;1.27;;;;;;;17.41;67.24;98770.19;12230027;19;20040;-79
2022/09/26 11:07:43;;;;;;;3.35;1.10;;;;;;;17.38;68.00;98760.53;12211899;19;20013;-81
2022/09/26 11:12:28;;;;;;;5.78;1.17;;;;;;;17.29;65.00;98749.34;12229799;19;20010;-81
2022/09/26 11:16:49;;;;;;;4.72;1.10;;;;;;;17.33;65.05;98738.38;12231668;19;20022;-78
2022/09/26 11:20:56;;;;;;;3.47;1.40;;;;;;;17.89;63.67;98736.78;12203843;19;20019;-80
2022/09/26 11:25:31;;;;;;;4.32;1.42;;;;;;;18.43;61.75;98739.31;12226078;19;20030;-82
2022/09/26 11:29:54;;;;;;;4.90;1.40;;;;;;;19.41;60.60;98734.09;12206407;19;20018;-81
2022/09/26 11:34:02;;;;;;;4.10;1.42;;;;;;;19.59;57.26;98730.88;12228696;19;20641;-80
2022/09/26 11:38:27;;;;;;;3.55;1.17;;;;;;;18.94;58.40;98729.28;12209755;19;20011;-82
2022/09/26 11:42:53;;;;;;;2.83;1.38;;;;;;;18.48;59.83;98719.63;12232927;19;20018;-83
2022/09/26 11:47:33;;;;;;;4.10;1.40;;;;;;;17.91;62.73;98719.78;12213952;19;20014;-82
2022/09/26 11:51:56;;;;;;;2.63;1.50;;;;;;;17.76;62.69;98712.66;12228223;19;20007;-80
2022/09/26 11:56:10;;;;;;;3.05;1.38;;;;;;;17.79;59.99;98702.84;12214785;19;20067;-80
2022/09/26 12:00:27;;;;;;;2.80;1.35;;;;;;;18.70;60.93;98681.53;12231130;19;20038;-80
2022/09/26 12:05:10;;;;;;;2.58;1.30;;;;;;;19.71;55.13;98682.66;12234477;19;20009;-80
2022/09/26 12:09:33;;;;;;;3.25;1.40;;;;;;;20.76;51.88;98659.47;12125190;19;2004475;-81
2022/09/26 12:14:11;;;;;;;4.38;1.90;;;;;;;21.73;50.53;98664.38;12239881;19;20029;-82
2022/09/26 12:18:52;;;;;;;2.70;1.45;;;;;;;22.01;47.92;98646.78;12127754;19;2004206;-84
2022/09/26 12:22:58;;;;;;;3.00;1.30;;;;;;;22.21;47.86;98643.03;12208683;19;20010;-81
2022/09/26 12:27:15;;;;;;;3.50;1.38;;;;;;;22.32;45.44;98629.31;12230454;19;20014;-81
2022/09/26 12:31:42;;;;;;;2.95;1.10;;;;;;;22.38;45.46;98616.66;12233733;19;20011;-83
2022/09/26 12:35:48;;;;;;;2.00;0.93;;;;;;;21.09;46.44;98606.19;12213239;19;20011;-82
2022/09/26 12:40:05;;;;;;;4.50;1.38;;;;;;;20.08;48.76;98615.81;12234159;19;20054;-80
2022/09/26 12:44:27;;;;;;;3.50;1.40;;;;;;;19.24;51.68;98610.09;12211325;19;20011;-79
2022/09/26 12:48:47;;;;;;;4.43;1.40;;;;;;;18.75;52.56;98614.44;12233201;19;20014;-79
2022/09/26 12:53:18;;;;;;;4.60;1.50;;;;;;;18.29;54.10;98607.59;12207854;19;20003;-81
2022/09/26 12:57:44;;;;;;;3.10;1.25;;;;;;;17.66;57.13;98599.53;12242083;19;20039;-81
2022/09/26 13:02:24;;;;;;;2.47;1.25;;;;;;;17.36;56.82;98586.56;12213892;19;20042;-82
2022/09/26 13:06:44;;;;;;;3.63;1.50;;;;;;;17.19;58.08;98588.19;12237422;19;20436;-81
2022/09/26 13:11:33;;;;;;;2.88;1.30;;;;;;;17.22;57.95;98584.75;12214138;19;20014;-81
2022/09/26 13:15:58;;;;;;;2.17;1.08;;;;;;;17.15;59.29;98573.25;12231149;19;20007;-80
2022/09/26 13:20:13;;;;;;;6.45;1.13;;;;;;;17.03;59.68;98565.50;12211596;19;20087;-79
2022/09/26 13:24:23;;;;;;;2.70;1.27;;;;;;;16.93;61.06;98563.03;12232398;19;20042;-80
2022/09/26 13:29:07;;;;;;;3.85;1.42;;;;;;;16.74;60.84;98562.44;12235210;19;20006;-79
2022/09/26 13:33:25;;;;;;;;;;;;;;;16.84;61.04;98557.44;12134375;19;2004403;-81
2022/09/26 13:37:46;;;;;;;2.88;1.40;;;;;;;17.10;61.49;98551.13;12234148;19;19998;-80
2022/09/26 13:42:01;;;;;;;4.75;1.50;;;;;;;17.15;60.52;98547.38;12207957;19;20098;-80
2022/09/26 13:46:14;;;;;;;1.70;0.90;;;;;;;17.04;60.52;98544.06;12230781;19;20006;-79
2022/09/26 13:50:44;;;;;;;2.58;0.88;;;;;;;17.05;60.22;98535.41;12209353;19;20018;-80
2022/09/26 13:55:03;;;;;;;3.00;1.10;;;;;;;17.11;60.74;98533.28;12227660;19;20014;-79
2022/09/26 13:59:10;;;;;;;1.15;0.65;;;;;;;17.01;61.15;98531.66;12204204;19;20019;-80
2022/09/26 14:03:12;;;;;;;4.80;1.02;;;;;;;17.00;61.33;98526.38;12228008;19;20006;-81
2022/09/26 14:11:48;;;;;;;2.80;0.95;;;;;;;16.87;62.92;98505.09;12207670;19;20603;-80
2022/09/26 14:15:56;;;;;;;2.85;0.90;;;;;;;16.76;63.18;98494.25;12227862;19;20015;-81
2022/09/26 14:20:04;;;;;;;2.67;1.40;;;;;;;16.60;63.95;98488.28;12205011;19;20027;-79
2022/09/26 14:24:28;;;;;;;2.35;1.08;;;;;;;16.31;65.22;98488.81;12227590;19;20483;-80
2022/09/26 14:28:33;;;;;;;6.07;1.30;;;;;;;16.04;67.66;98483.44;12219218;19;20046;-79
2022/09/26 14:32:37;;;;;;;4.78;1.70;;;;;;;15.88;71.08;98486.63;12210187;19;20004;-80
2022/09/26 14:36:40;;;;;;;2.83;1.02;;;;;;;15.95;71.28;98473.09;12231840;19;20009;-79
2022/09/26 14:40:57;;;;;;;4.40;1.35;;;;;;;15.78;74.64;98469.38;12216947;19;20027;-78
2022/09/26 14:45:03;;;;;;;3.35;1.17;;;;;;;15.77;75.41;98470.53;12227944;19;20011;-79
2022/09/26 14:49:06;;;;;;;2.38;1.50;;;;;;;15.81;76.41;98450.13;12228779;19;20494;-78
2022/09/26 14:53:46;;;;;;;7.00;2.20;;;;;;;15.80;79.50;98448.50;12200437;19;20007;-79
2022/09/26 14:57:48;;;;;;;5.38;1.65;;;;;;;15.79;79.31;98430.16;12227818;19;20481;-78
2022/09/26 15:01:52;;;;;;;3.17;1.60;;;;;;;15.90;78.33;98414.06;12203972;19;20006;-78
2022/09/26 15:05:54;;;;;;;2.80;1.40;;;;;;;15.91;77.54;98413.75;12224090;19;20059;-78
2022/09/26 15:09:58;;;;;;;3.13;1.60;;;;;;;15.78;77.45;98402.72;12217172;19;20010;-78
2022/09/26 15:14:15;;;;;;;4.20;1.27;;;;;;;15.25;76.56;98401.53;12205067;19;20056;-79
2022/09/26 15:18:30;;;;;;;1.48;0.90;;;;;;;15.18;77.17;98401.16;12227148;19;20007;-78
2022/09/26 15:22:33;;;;;;;4.30;1.30;;;;;;;15.14;77.53;98402.91;12227201;19;20010;-80
2022/09/26 15:26:35;;;;;;;3.13;1.00;;;;;;;14.92;77.91;98404.53;12187782;19;20032;-79
2022/09/26 15:30:39;;;;;;;3.65;1.02;;;;;;;14.78;77.76;98387.94;12218311;19;20033;-78
2022/09/26 15:34:41;;;;;;;3.67;1.20;;;;;;;14.78;76.84;98387.09;12227345;19;20082;-80
2022/09/26 15:38:44;;;;;;;3.03;1.47;;;;;;;14.78;76.53;98376.00;12202649;19;20011;-79
2022/09/26 15:42:57;;;;;;;6.75;1.40;;;;;;;14.69;77.83;98378.69;12219470;19;20014;-78
2022/09/26 15:47:16;;;;;;;4.45;1.90;;;;;;;14.66;77.83;98368.25;12201822;19;20010;-80
2022/09/26 15:51:34;;;;;;;5.72;1.30;;;;;;;14.68;78.18;98365.16;12223653;19;20007;-79
2022/09/26 15:55:56;;;;;;;3.22;1.50;;;;;;;14.54;78.88;98360.47;12226042;19;20002;-78
2022/09/26 16:00:00;;;;;;;2.97;1.13;;;;;;;14.44;79.58;98348.78;12194860;19;20014;-78
2022/09/26 16:04:27;;;;;;;3.67;1.27;;;;;;;14.38;80.84;98345.28;12219306;19;20007;-78
2022/09/26 16:08:36;;;;;;;3.50;1.58;;;;;;;14.36;81.77;98347.53;12200218;19;20037;-80
2022/09/26 16:12:40;;;;;;;3.80;1.50;;;;;;;14.36;82.02;98344.75;12221137;19;20471;-78
2022/09/26 16:16:42;;;;;;;8.35;1.85;;;;;;;14.37;81.88;98351.97;12213177;19;20172;-78
2022/09/26 16:20:44;;;;;;;4.05;1.70;;;;;;;14.39;81.64;98340.56;12222568;19;20023;-78
2022/09/26 16:24:45;;;;;;;2.13;1.30;;;;;;;14.25;81.69;98340.59;12219057;19;20011;-80
2022/09/26 16:28:51;;;;;;;4.93;1.42;;;;;;;14.18;82.29;98334.63;12199536;19;20014;-78
2022/09/26 16:33:16;;;;;;;4.00;1.42;;;;;;;14.09;81.81;98321.50;12222748;19;20010;-79
2022/09/26 16:37:19;;;;;;;4.45;1.60;;;;;;;14.07;82.66;98317.44;12223381;19;20011;-79
2022/09/26 16:41:31;;;;;;;4.00;1.60;;;;;;;14.04;82.32;98318.88;12228824;19;20006;-79
2022/09/26 16:46:13;;;;;;;4.15;1.65;;;;;;;14.01;82.97;98315.88;12264411;19;20013;-79
2022/09/26 16:50:32;;;;;;;5.22;1.90;;;;;;;13.89;83.23;98306.16;12242139;19;20006;-79
2022/09/26 16:54:33;;;;;;;2.08;1.40;;;;;;;13.94;82.75;98290.56;12264115;19;20010;-80
2022/09/26 16:58:35;;;;;;;3.70;1.65;;;;;;;13.81;83.92;98287.50;12253075;19;20075;-79
2022/09/26 17:02:37;;;;;;;4.50;1.80;;;;;;;13.88;83.43;98282.34;12209589;19;20006;-79
2022/09/26 17:06:39;;;;;;;3.55;1.70;;;;;;;13.83;84.52;98281.63;12228505;19;19998;-78
2022/09/26 17:10:42;;;;;;;4.15;1.77;;;;;;;13.83;84.41;98276.09;12225747;19;20024;-78
2022/09/26 17:14:50;;;;;;;3.72;1.92;;;;;;;13.79;85.44;98269.53;12224412;19;20393;-79
2022/09/26 17:18:55;;;;;;;3.88;1.65;;;;;;;13.78;85.37;98259.59;12229408;19;20003;-78
2022/09/26 17:22:58;;;;;;;5.32;1.73;;;;;;;13.69;86.03;98253.97;12204897;19;20018;-78
2022/09/26 17:27:21;;;;;;;3.63;1.85;;;;;;;13.74;86.57;98247.50;12219772;19;20010;-78
2022/09/26 17:31:23;;;;;;;4.88;1.50;;;;;;;13.74;87.81;98251.09;12226085;19;20011;-78
2022/09/26 17:35:31;;;;;;;5.00;2.03;;;;;;;13.59;90.73;98232.88;12201233;19;20022;-79
2022/09/26 17:39:33;;;;;;;4.15;2.72;;;;;;;13.63;91.33;98231.09;12218781;19;20043;-78
2022/09/26 17:43:35;;;;;;;3.80;2.10;;;;;;;13.49;94.06;98233.06;12218636;19;20014;-79
2022/09/26 17:47:38;;;;;;;3.30;1.67;;;;;;;13.41;95.99;98228.22;12199231;19;20119;-78
2022/09/26 17:51:41;;;;;;;4.65;1.52;;;;;;;13.35;96.71;98223.94;12212876;19;20049;-78
2022/09/26 17:55:43;;;;;;;5.00;2.00;;;;;;;13.34;97.91;98223.13;12203402;19;20007;-78
2022/09/26 17:59:46;;;;;;;3.25;1.70;;;;;;;13.24;100.00;98215.00;12218166;19;20022;-77
2022/09/26 18:03:50;;;;;;;6.50;1.80;;;;;;;13.23;100.00;98210.56;12223262;19;20031;-78
2022/09/26 18:07:56;;;;;;;2.83;2.17;;;;;;;13.19;100.00;98207.59;12201170;19;20015;-79
2022/09/26 18:12:01;;;;;;;5.68;2.28;;;;;;;13.09;100.00;98210.56;12205511;19;20097;-76
2022/09/26 18:16:04;;;;;;;5.30;2.75;;;;;;;12.99;100.00;98203.28;12211960;19;20031;-77
2022/09/26 18:20:06;;;;;;;4.30;2.30;;;;;;;12.92;100.00;98210.34;12215266;19;20367;-78
2022/09/26 18:24:13;;;;;;;5.57;2.42;;;;;;;12.80;100.00;98213.59;12214806;19;20014;-79
2022/09/26 18:28:22;;;;;;;4.45;2.63;;;;;;;12.65;100.00;98222.97;12213472;19;20002;-79
2022/09/26 18:32:28;;;;;;;5.85;2.50;;;;;;;12.49;100.00;98224.31;12194777;19;20018;-78
2022/09/26 18:36:34;;;;;;;7.65;3.55;;;;;;;12.48;100.00;98222.69;12218580;19;20892;-78
2022/09/26 18:40:43;;;;;;;6.47;3.72;;;;;;;12.47;100.00;98213.59;12216149;19;20002;-80
2022/09/26 18:44:44;;;;;;;6.80;3.45;;;;;;;12.44;100.00;98224.44;12197403;19;20020;-79
2022/09/26 18:48:46;;;;;;;9.23;3.53;;;;;;;12.41;100.00;98219.50;12220100;19;20018;-80
2022/09/26 18:52:49;;;;;;;10.40;4.10;;;;;;;12.37;100.00;98222.03;12222996;19;20498;-79
2022/09/26 19:01:26;;;;;;;8.18;3.80;;;;;;;12.23;100.00;98232.22;12220101;19;20010;-80
2022/09/26 19:05:28;;;;;;;6.82;4.13;;;;;;;12.19;100.00;98231.16;12214792;19;20019;-78
2022/09/26 19:09:32;;;;;;;11.55;4.63;;;;;;;12.07;100.00;98239.88;12215685;19;20011;-78
2022/09/26 19:13:34;;;;;;;5.35;2.88;;;;;;;11.94;100.00;98227.63;12214806;19;20899;-80
2022/09/26 19:17:36;;;;;;;9.60;2.97;;;;;;;11.95;100.00;98226.50;12193954;19;20022;-79
2022/09/26 19:21:43;;;;;;;4.18;2.15;;;;;;;11.88;100.00;98233.53;12215878;19;20003;-80
2022/09/26 19:25:45;;;;;;;6.32;2.85;;;;;;;11.77;100.00;98233.63;12215285;19;20010;-79
2022/09/26 19:30:02;;;;;;;6.13;2.20;;;;;;;11.64;100.00;98220.56;12193038;19;20006;-80
2022/09/26 19:34:08;;;;;;;4.88;2.53;;;;;;;11.54;100.00;98220.69;12214445;19;20026;-79
2022/09/26 19:38:22;;;;;;;6.28;2.58;;;;;;;11.46;100.00;98218.59;12216543;19;20015;-78
2022/09/26 19:42:24;;;;;;;6.22;2.35;;;;;;;11.38;100.00;98211.78;12191383;19;20031;-79
2022/09/26 19:46:26;;;;;;;6.03;2.65;;;;;;;11.41;100.00;98206.50;12214486;19;20017;-79
2022/09/26 19:50:30;;;;;;;4.97;2.28;;;;;;;11.36;100.00;98200.22;12198384;19;20026;-78